Time;durP1;ratioP1;P1;durP2;ratioP2;P2;SDS_P1;SDS_P2;PMS_P1;PMS_P2;Temp;Humidity;BMP_temperature;BMP_pressure;BME280_temperature;BME280_humidity;BME280_pressure;Samples;Min_cycle;Max_cycle;Signal;HPM_P1;HPM_P2
2022/01/28 00:00:17;;;;;;;11.00;2.30;;;;;;;3.65;88.92;101385.81;107674;1281;60406;-77
2022/01/28 00:05:17;;;;;;;14.10;2.10;;;;;;;3.68;88.34;101394.70;107806;1280;71032;-76
2022/01/28 00:07:45;;;;;;;11.90;2.00;;;;;;;3.68;88.08;101392.28;107844;1280;72734;-76
2022/01/28 00:10:12;;;;;;;11.90;1.70;;;;;;;3.67;88.61;101393.20;107562;1281;62063;-77
2022/01/28 00:12:55;;;;;;;15.10;2.10;;;;;;;3.67;88.28;101402.15;107683;1279;60733;-77
2022/01/28 00:39:46;;;;;;;18.30;2.30;;;;;;;3.61;89.03;101420.12;107834;1279;60262;-76
2022/01/28 00:42:13;;;;;;;10.10;1.60;;;;;;;3.60;88.87;101427.81;107780;1279;73466;-75
2022/01/28 00:44:39;;;;;;;14.70;2.60;;;;;;;3.60;89.00;101419.09;107776;1279;71110;-75
2022/01/28 00:47:09;;;;;;;17.00;2.00;;;;;;;3.61;88.70;101421.15;107867;1279;73273;-76
2022/01/28 00:49:36;;;;;;;9.60;1.40;;;;;;;3.60;88.78;101432.42;107841;1279;61233;-74
2022/01/28 00:52:03;;;;;;;13.40;1.90;;;;;;;3.58;89.06;101432.05;107759;1281;60772;-75
2022/01/28 00:54:30;;;;;;;11.30;1.80;;;;;;;3.56;89.15;101437.40;107871;1279;76078;-74
2022/01/28 00:56:56;;;;;;;13.60;1.50;;;;;;;3.56;88.62;101445.27;107861;1279;71401;-75
2022/01/28 00:59:23;;;;;;;15.20;2.10;;;;;;;3.56;88.76;101458.75;107669;1280;58907;-76
2022/01/28 01:01:49;;;;;;;14.00;3.10;;;;;;;3.55;88.51;101471.56;107885;1279;61364;-75
2022/01/28 01:04:17;;;;;;;8.50;1.30;;;;;;;3.54;88.75;101451.73;107730;1280;60589;-76
2022/01/28 01:06:44;;;;;;;14.90;2.00;;;;;;;3.55;88.92;101457.23;107868;1280;75697;-75
2022/01/28 01:09:11;;;;;;;17.30;3.10;;;;;;;3.56;88.90;101461.04;107880;1279;72322;-75
2022/01/28 01:11:40;;;;;;;12.90;1.90;;;;;;;3.55;88.78;101457.79;107864;1280;74138;-77
2022/01/28 01:14:06;;;;;;;20.80;2.20;;;;;;;3.55;89.22;101468.77;107838;1280;61125;-75
2022/01/28 01:16:46;;;;;;;17.00;1.90;;;;;;;3.56;89.01;101475.72;107900;1279;61614;-74
2022/01/28 01:19:19;;;;;;;7.00;1.30;;;;;;;3.57;88.79;101480.53;107879;1280;74011;-76
2022/01/28 01:21:47;;;;;;;9.70;1.60;;;;;;;3.59;88.54;101485.50;107915;1280;72389;-75
2022/01/28 01:24:22;;;;;;;17.10;2.10;;;;;;;3.60;88.54;101495.36;107860;1280;71931;-75
2022/01/28 01:26:48;;;;;;;9.30;2.50;;;;;;;3.61;88.84;101504.75;107857;1280;60414;-76
2022/01/28 01:29:18;;;;;;;8.30;1.90;;;;;;;3.60;89.05;101507.41;107725;1281;61344;-75
2022/01/28 01:31:46;;;;;;;14.40;2.50;;;;;;;3.60;88.78;101506.89;107879;1279;76037;-75
2022/01/28 01:34:20;;;;;;;9.30;1.30;;;;;;;3.59;89.05;101513.27;107777;1281;71372;-76
2022/01/28 01:36:46;;;;;;;9.70;1.60;;;;;;;3.57;89.34;101526.02;107887;1280;73728;-75
2022/01/28 01:39:20;;;;;;;18.30;2.50;;;;;;;3.56;89.41;101525.20;107616;1279;61709;-75
2022/01/28 01:41:56;;;;;;;12.70;1.70;;;;;;;3.55;89.25;101529.67;107795;1280;60646;-76
2022/01/28 01:44:37;;;;;;;13.60;2.40;;;;;;;3.55;89.35;101516.70;107870;1279;74412;-77
2022/01/28 01:52:33;;;;;;;17.80;2.40;;;;;;;3.53;89.02;101522.99;107848;1280;62535;-74
2022/01/28 01:54:59;;;;;;;13.60;2.20;;;;;;;3.53;89.03;101532.58;107885;1279;61762;-75
2022/01/28 01:57:26;;;;;;;17.70;2.80;;;;;;;3.55;89.11;101527.05;107876;1280;60575;-76
2022/01/28 01:59:53;;;;;;;11.90;2.80;;;;;;;3.56;88.97;101537.29;107855;1279;71559;-75
2022/01/28 02:02:19;;;;;;;3.40;1.30;;;;;;;3.57;88.60;101542.11;107821;1280;73111;-76
2022/01/28 02:04:46;;;;;;;13.80;2.90;;;;;;;3.57;89.22;101548.73;107813;1279;62442;-75
2022/01/28 02:07:15;;;;;;;9.00;1.50;;;;;;;3.56;89.52;101551.09;107840;1279;60337;-75
2022/01/28 02:09:42;;;;;;;18.50;3.30;;;;;;;3.54;89.74;101552.48;107841;1279;76000;-76
2022/01/28 02:12:10;;;;;;;24.40;2.50;;;;;;;3.53;89.50;101554.64;107862;1280;71412;-76
2022/01/28 02:14:36;;;;;;;6.90;1.50;;;;;;;3.53;89.76;101559.89;107750;1280;72632;-75
2022/01/28 02:17:04;;;;;;;8.40;2.20;;;;;;;3.54;89.14;101573.48;107817;1279;61467;-76
2022/01/28 02:19:31;;;;;;;8.70;1.90;;;;;;;3.55;89.32;101567.08;107841;1281;60628;-75
2022/01/28 02:21:58;;;;;;;12.00;2.10;;;;;;;3.56;88.96;101572.27;107842;1280;75707;-74
2022/01/28 02:24:31;;;;;;;19.90;2.10;;;;;;;3.58;88.95;101570.05;107734;1281;71772;-75
2022/01/28 02:26:57;;;;;;;21.60;3.70;;;;;;;3.60;88.73;101583.20;107728;1281;73127;-75
2022/01/28 02:29:30;;;;;;;10.20;1.90;;;;;;;3.61;88.72;101585.54;107848;1280;62643;-74
2022/01/28 02:31:58;;;;;;;5.80;1.40;;;;;;;3.63;88.87;101591.91;107805;1280;60827;-75
2022/01/28 02:34:25;;;;;;;12.50;2.90;;;;;;;3.63;88.53;101583.33;107743;1280;77399;-76
2022/01/28 02:36:52;;;;;;;9.20;1.80;;;;;;;3.64;88.33;101586.93;107738;1281;73051;-75
2022/01/28 02:39:19;;;;;;;20.30;2.40;;;;;;;3.65;88.39;101587.70;107767;1281;73055;-75
2022/01/28 02:41:49;;;;;;;17.90;2.90;;;;;;;3.66;88.40;101590.77;107702;1281;61433;-75
2022/01/28 02:46:56;;;;;;;17.50;2.00;;;;;;;3.66;88.10;101601.23;107749;1280;74942;-75
2022/01/28 02:49:26;;;;;;;11.50;1.80;;;;;;;3.65;88.38;101596.44;107835;1281;72268;-75
2022/01/28 02:51:54;;;;;;;16.70;2.10;;;;;;;3.64;87.95;101609.64;107855;1279;75164;-75
2022/01/28 02:54:21;;;;;;;11.80;1.60;;;;;;;3.67;87.37;101602.07;107858;1280;61702;-76
2022/01/28 02:56:59;;;;;;;27.20;3.40;;;;;;;3.67;87.71;101596.63;107852;1279;60535;-75
2022/01/28 02:59:26;;;;;;;13.30;2.00;;;;;;;3.65;88.03;101594.52;107824;1279;75233;-76
2022/01/28 03:01:52;;;;;;;15.50;2.00;;;;;;;3.61;88.20;101610.05;107850;1279;72552;-76
2022/01/28 03:06:58;;;;;;;9.50;1.50;;;;;;;3.49;88.68;101597.59;107828;1281;62062;-76
2022/01/28 03:09:35;;;;;;;12.40;2.10;;;;;;;3.45;88.85;101599.98;107717;1281;60756;-75
2022/01/28 03:12:15;;;;;;;8.20;1.50;;;;;;;3.40;89.36;101606.26;107847;1280;74997;-76
2022/01/28 03:15:00;;;;;;;13.40;2.50;;;;;;;3.36;89.62;101599.73;107833;1280;70457;-77
2022/01/28 03:22:44;;;;;;;15.30;2.40;;;;;;;3.33;89.34;101611.14;107846;1280;60212;-77
2022/01/28 03:25:12;;;;;;;11.00;2.20;;;;;;;3.35;89.38;101608.70;107821;1279;74953;-76
2022/01/28 03:27:50;;;;;;;10.30;1.60;;;;;;;3.36;89.44;101602.17;107844;1280;71417;-77
2022/01/28 03:30:18;;;;;;;7.20;1.20;;;;;;;3.33;89.21;101618.82;107815;1281;73754;-75
2022/01/28 03:32:45;;;;;;;5.90;1.30;;;;;;;3.32;89.14;101626.60;107821;1281;62504;-77
2022/01/28 03:35:27;;;;;;;9.90;1.70;;;;;;;3.29;89.34;101629.77;107834;1280;59545;-75
2022/01/28 03:37:59;;;;;;;5.00;1.60;;;;;;;3.25;89.47;101635.90;107832;1281;74958;-75
2022/01/28 03:40:28;;;;;;;10.90;2.00;;;;;;;3.23;89.49;101637.84;107862;1280;72520;-74
2022/01/28 03:42:55;;;;;;;8.70;1.60;;;;;;;3.20;89.51;101648.69;107814;1280;71985;-76
2022/01/28 03:45:22;;;;;;;9.20;2.00;;;;;;;3.19;89.54;101641.41;107847;1280;62525;-75
2022/01/28 03:47:49;;;;;;;5.00;1.30;;;;;;;3.20;89.82;101642.90;107835;1279;61584;-76
2022/01/28 03:50:15;;;;;;;9.00;1.80;;;;;;;3.22;89.75;101650.48;107810;1280;75157;-76
2022/01/28 03:52:42;;;;;;;18.40;2.60;;;;;;;3.23;89.83;101653.55;107835;1281;71264;-76
2022/01/28 03:55:09;;;;;;;14.30;2.90;;;;;;;3.21;90.05;101654.02;107635;1280;73840;-76
2022/01/28 03:57:35;;;;;;;11.40;1.90;;;;;;;3.20;89.29;101665.48;107849;1281;62373;-75
2022/01/28 04:00:04;;;;;;;9.70;2.40;;;;;;;3.20;88.94;101658.14;107809;1280;61431;-76
2022/01/28 04:02:34;;;;;;;8.70;2.90;;;;;;;3.20;88.84;101670.67;107820;1279;76129;-76
2022/01/28 04:13:24;;;;;;;15.10;2.10;;;;;;;3.13;87.94;101698.27;107834;1280;60582;-75
2022/01/28 04:16:17;;;;;;;17.80;2.70;;;;;;;3.11;88.03;101693.17;107846;1280;74551;-76
2022/01/28 04:18:41;;;;;;;23.00;2.80;;;;;;;3.07;87.88;101699.55;107842;1280;71204;-75
2022/01/28 04:21:07;;;;;;;8.40;1.40;;;;;;;3.05;87.54;101705.27;107833;1280;73335;-74
2022/01/28 04:23:34;;;;;;;8.60;1.40;;;;;;;3.03;87.71;101701.88;107811;1280;62548;-76
2022/01/28 04:26:01;;;;;;;14.30;2.00;;;;;;;3.00;87.71;101704.35;107854;1281;60234;-76
2022/01/28 04:28:27;;;;;;;7.90;1.60;;;;;;;2.98;87.46;101701.54;107865;1280;74915;-76
2022/01/28 04:30:54;;;;;;;9.20;1.40;;;;;;;2.98;87.73;101696.16;107796;1279;71104;-76
2022/01/28 04:33:21;;;;;;;19.10;2.60;;;;;;;2.96;88.13;101705.16;107859;1280;73129;-75
2022/01/28 04:35:51;;;;;;;4.70;1.50;;;;;;;2.94;88.04;101712.31;107897;1281;61655;-76
2022/01/28 04:38:38;;;;;;;11.30;2.50;;;;;;;2.87;88.30;101709.77;107718;1280;62421;-76
2022/01/28 04:41:17;;;;;;;6.30;1.80;;;;;;;2.87;88.73;101721.64;107739;1281;76200;-76
2022/01/28 04:43:54;;;;;;;9.00;1.40;;;;;;;2.89;88.97;101725.92;107766;1280;72455;-75
2022/01/28 04:46:42;;;;;;;13.10;1.30;;;;;;;2.91;88.73;101724.36;107873;1279;73190;-76
2022/01/28 04:49:23;;;;;;;19.90;2.80;;;;;;;2.95;88.70;101740.90;107864;1279;62636;-76
2022/01/28 04:52:14;;;;;;;16.20;2.60;;;;;;;2.98;89.17;101746.30;107860;1279;60365;-76
2022/01/28 04:55:02;;;;;;;14.40;2.20;;;;;;;2.98;89.78;101741.35;107880;1280;74787;-76
2022/01/28 05:00:32;;;;;;;13.50;2.00;;;;;;;2.97;89.50;101746.34;107828;1279;72975;-76
2022/01/28 05:11:15;;;;;;;12.40;3.70;;;;;;;3.00;89.19;101761.20;107841;1279;72107;-76
2022/01/28 05:14:04;;;;;;;7.20;1.40;;;;;;;3.04;88.83;101766.33;107873;1281;74523;-75
2022/01/28 05:27:26;;;;;;;18.80;2.60;;;;;;;2.99;91.22;101792.88;107831;1279;73113;-77
2022/01/28 05:29:52;;;;;;;8.00;1.50;;;;;;;2.99;91.28;101808.63;107837;1279;62752;-77
2022/01/28 05:32:19;;;;;;;4.60;0.80;;;;;;;2.98;91.71;101804.48;107776;1279;60392;-77
2022/01/28 05:34:47;;;;;;;18.70;2.20;;;;;;;2.96;92.27;101823.45;107731;1281;73734;-78
2022/01/28 05:37:14;;;;;;;16.40;2.40;;;;;;;2.90;93.37;101836.60;107778;1280;72420;-74
2022/01/28 05:39:41;;;;;;;28.10;3.70;;;;;;;2.83;94.68;101843.13;107740;1281;73100;-77
2022/01/28 05:42:08;;;;;;;14.40;2.80;;;;;;;2.77;95.53;101843.33;107843;1279;61615;-75
2022/01/28 05:44:34;;;;;;;22.20;2.80;;;;;;;2.72;96.30;101844.55;107795;1279;61614;-76
2022/01/28 05:47:03;;;;;;;6.20;1.80;;;;;;;2.66;96.86;101841.26;107820;1280;75053;-79
2022/01/28 05:49:30;;;;;;;54.00;5.90;;;;;;;2.61;97.43;101842.58;107746;1281;71397;-74
2022/01/28 05:51:58;;;;;;;52.10;6.90;;;;;;;2.58;97.70;101854.86;107808;1281;72955;-75
2022/01/28 05:54:25;;;;;;;16.20;2.40;;;;;;;2.53;97.09;101860.20;107821;1280;61183;-77
2022/01/28 05:56:51;;;;;;;26.60;4.00;;;;;;;2.49;97.73;101857.13;107772;1281;61670;-74
2022/01/28 05:59:19;;;;;;;34.90;3.60;;;;;;;2.45;97.92;101850.02;107827;1279;74939;-74
2022/01/28 06:01:46;;;;;;;25.30;2.90;;;;;;;2.40;97.87;101870.73;107800;1281;72198;-76
2022/01/28 06:04:13;;;;;;;15.00;2.30;;;;;;;2.37;98.15;101866.91;107693;1281;74217;-78
2022/01/28 06:06:39;;;;;;;40.10;4.80;;;;;;;2.33;98.47;101869.48;107858;1280;59971;-78
2022/01/28 06:09:06;;;;;;;21.90;3.60;;;;;;;2.29;98.53;101873.70;107895;1280;60726;-76
2022/01/28 06:11:32;;;;;;;63.50;9.90;;;;;;;2.28;98.87;101883.20;107797;1280;75046;-73
2022/01/28 06:13:59;;;;;;;31.50;4.50;;;;;;;2.26;99.37;101891.33;107860;1279;72375;-74
2022/01/28 06:16:28;;;;;;;33.90;4.50;;;;;;;2.26;99.64;101880.17;107852;1280;72937;-73
2022/01/28 06:18:55;;;;;;;68.30;9.60;;;;;;;2.26;99.94;101898.83;107916;1279;62440;-73
2022/01/28 06:21:22;;;;;;;33.70;4.00;;;;;;;2.28;99.85;101903.11;107723;1281;60800;-73
2022/01/28 06:23:51;;;;;;;27.80;3.80;;;;;;;2.29;99.99;101896.42;107931;1279;73948;-73
2022/01/28 06:26:18;;;;;;;19.70;2.70;;;;;;;2.29;100.00;101895.00;107904;1281;70383;-76
2022/01/28 06:28:45;;;;;;;24.80;4.70;;;;;;;2.28;99.96;101905.02;107929;1279;72833;-74
2022/01/28 06:31:12;;;;;;;27.00;4.50;;;;;;;2.29;100.00;101914.20;107880;1280;59022;-74
2022/01/28 06:33:41;;;;;;;17.00;4.70;;;;;;;2.29;100.00;101911.41;107930;1279;60602;-75
2022/01/28 06:36:07;;;;;;;16.90;3.30;;;;;;;2.31;100.00;101910.58;107864;1281;75568;-75
2022/01/28 06:38:34;;;;;;;12.20;2.50;;;;;;;2.32;100.00;101919.95;107929;1279;72159;-76
2022/01/28 06:41:00;;;;;;;48.20;6.60;;;;;;;2.32;100.00;101918.38;107858;1280;72697;-73
2022/01/28 06:43:27;;;;;;;29.60;4.30;;;;;;;2.34;100.00;101926.29;107931;1279;63366;-73
2022/01/28 06:45:54;;;;;;;10.80;2.90;;;;;;;2.37;99.80;101919.12;107835;1281;60709;-77
2022/01/28 06:48:21;;;;;;;20.20;4.20;;;;;;;2.45;98.83;101934.02;107897;1279;75083;-77
2022/01/28 06:50:48;;;;;;;7.90;1.70;;;;;;;2.53;97.48;101936.37;107914;1280;71503;-79
2022/01/28 06:53:15;;;;;;;10.60;2.30;;;;;;;2.59;96.64;101941.06;107936;1279;74131;-76
2022/01/28 06:55:42;;;;;;;16.60;2.20;;;;;;;2.63;95.17;101952.48;107930;1280;62652;-79
2022/01/28 06:58:09;;;;;;;22.30;2.10;;;;;;;2.68;94.96;101956.77;107926;1279;60755;-76
2022/01/28 07:00:37;;;;;;;15.90;1.60;;;;;;;2.71;93.96;101962.67;108049;1279;76131;-80
2022/01/28 07:03:05;;;;;;;17.70;2.40;;;;;;;2.73;93.67;101966.40;107920;1279;72226;-76
2022/01/28 07:05:33;;;;;;;13.00;2.00;;;;;;;2.74;93.82;101967.20;107947;1279;72889;-76
2022/01/28 07:07:59;;;;;;;27.90;3.70;;;;;;;2.74;93.18;101972.96;107938;1279;61450;-74
2022/01/28 07:10:28;;;;;;;9.10;1.70;;;;;;;2.76;92.55;101978.63;107795;1281;61890;-78
2022/01/28 07:12:55;;;;;;;7.60;1.40;;;;;;;2.77;92.66;101980.29;107721;1281;74938;-76
2022/01/28 07:15:24;;;;;;;11.00;1.50;;;;;;;2.78;91.96;101981.98;107979;1279;71297;-78
2022/01/28 07:17:53;;;;;;;15.80;2.30;;;;;;;2.78;91.73;101979.53;107924;1279;74037;-76
2022/01/28 07:20:25;;;;;;;8.90;1.20;;;;;;;2.79;91.21;101985.63;107914;1279;61953;-76
2022/01/28 07:22:52;;;;;;;6.60;1.30;;;;;;;2.81;90.72;101989.49;107940;1279;60769;-75
2022/01/28 07:25:18;;;;;;;2.00;0.70;;;;;;;2.81;90.51;101993.84;107830;1281;76310;-76
2022/01/28 07:27:45;;;;;;;25.00;2.50;;;;;;;2.83;90.57;101994.09;107673;1281;399098;-78
2022/01/28 07:30:13;;;;;;;38.90;3.00;;;;;;;2.84;89.96;101999.61;107839;1280;72845;-77
2022/01/28 07:32:42;;;;;;;4.90;1.20;;;;;;;2.86;89.97;102016.09;107952;1281;61312;-76
2022/01/28 07:35:14;;;;;;;16.70;3.10;;;;;;;2.88;89.29;102010.97;107720;1279;59238;-76
2022/01/28 07:37:41;;;;;;;28.10;5.90;;;;;;;2.90;89.29;102012.91;107967;1281;73888;-76
2022/01/28 07:40:08;;;;;;;19.80;3.80;;;;;;;2.91;88.60;102014.60;107939;1279;59223;-78
2022/01/28 07:42:37;;;;;;;18.00;3.40;;;;;;;2.96;88.34;102015.88;107889;1280;74075;-77
2022/01/28 07:45:09;;;;;;;5.00;1.10;;;;;;;2.98;88.21;102017.34;107748;1281;62664;-77
2022/01/28 07:47:36;;;;;;;8.70;1.70;;;;;;;3.00;87.89;102025.06;107958;1280;60731;-79
2022/01/28 07:50:05;;;;;;;10.50;1.90;;;;;;;3.01;87.44;102025.31;107929;1279;76287;-78
2022/01/28 07:52:32;;;;;;;7.20;1.80;;;;;;;3.02;87.61;102029.63;107945;1279;72442;-79
2022/01/28 07:54:58;;;;;;;15.80;2.00;;;;;;;3.02;87.04;102033.86;107833;1281;73429;-76
2022/01/28 07:57:30;;;;;;;15.30;2.70;;;;;;;3.03;86.69;102035.20;107939;1281;62647;-77
2022/01/28 07:59:57;;;;;;;18.80;3.70;;;;;;;3.03;86.82;102040.42;107989;1281;60746;-77
2022/01/28 08:02:27;;;;;;;9.50;2.20;;;;;;;3.05;86.05;102051.69;107869;1280;76249;-79
2022/01/28 08:04:54;;;;;;;22.70;3.20;;;;;;;3.05;86.26;102046.95;107844;1281;71470;-77
2022/01/28 08:07:22;;;;;;;11.50;1.80;;;;;;;3.06;86.10;102046.74;107851;1281;74277;-79
2022/01/28 08:09:49;;;;;;;24.20;3.40;;;;;;;3.05;85.85;102053.77;108008;1279;60946;-78
2022/01/28 08:12:16;;;;;;;12.70;3.40;;;;;;;3.07;85.97;102048.95;107961;1279;60601;-78
2022/01/28 08:14:42;;;;;;;9.20;2.40;;;;;;;3.09;85.27;102052.66;107986;1280;59629;-77
2022/01/28 08:17:11;;;;;;;8.20;2.30;;;;;;;3.15;85.07;102061.73;107957;1281;72349;-79
2022/01/28 08:19:38;;;;;;;5.80;1.60;;;;;;;3.23;84.88;102063.46;108000;1279;72404;-78
2022/01/28 08:22:05;;;;;;;11.70;2.10;;;;;;;3.30;84.22;102069.01;107952;1281;60389;-77
2022/01/28 08:24:32;;;;;;;10.20;2.90;;;;;;;3.35;83.55;102070.14;107969;1280;60810;-77
2022/01/28 08:27:01;;;;;;;12.70;2.40;;;;;;;3.38;83.64;102070.14;107964;1279;75175;-77
2022/01/28 08:29:28;;;;;;;16.80;2.30;;;;;;;3.43;83.27;102075.94;107942;1281;71811;-78
2022/01/28 08:31:54;;;;;;;13.90;2.20;;;;;;;3.45;82.82;102081.19;107817;1281;59060;-77
2022/01/28 08:34:21;;;;;;;9.70;2.30;;;;;;;3.49;82.55;102077.16;107905;1280;62581;-79
2022/01/28 08:36:47;;;;;;;13.70;1.70;;;;;;;3.51;82.71;102081.52;107981;1280;58377;-79
2022/01/28 08:39:16;;;;;;;11.90;1.70;;;;;;;3.53;82.26;102080.70;107839;1281;76049;-78
2022/01/28 08:41:43;;;;;;;11.90;2.00;;;;;;;3.58;82.22;102084.45;107977;1280;71422;-78
2022/01/28 08:44:17;;;;;;;10.00;2.50;;;;;;;3.62;82.00;102089.42;108015;1281;73068;-78
2022/01/28 08:46:44;;;;;;;10.60;1.40;;;;;;;3.67;82.01;102099.09;107937;1281;61475;-78
2022/01/28 08:49:11;;;;;;;9.40;2.10;;;;;;;3.70;81.71;102101.38;107980;1281;60603;-78
2022/01/28 08:51:38;;;;;;;10.90;1.90;;;;;;;3.74;81.26;102107.97;107941;1280;74634;-78
2022/01/28 08:54:05;;;;;;;8.50;2.60;;;;;;;3.77;80.83;102109.70;107964;1278;72477;-78
2022/01/28 08:56:31;;;;;;;8.90;1.70;;;;;;;3.80;80.46;102112.09;107922;1281;74112;-77
2022/01/28 08:58:58;;;;;;;11.60;1.70;;;;;;;3.85;80.82;102113.90;107860;1281;62628;-77
2022/01/28 09:01:25;;;;;;;13.80;1.90;;;;;;;3.91;81.13;102128.80;107659;1281;62017;-77
2022/01/28 09:03:52;;;;;;;13.40;2.80;;;;;;;3.93;80.29;102126.02;107892;1281;76044;-78
2022/01/28 09:06:19;;;;;;;11.10;2.30;;;;;;;3.94;79.50;102122.09;107875;1280;71347;-78
2022/01/28 09:08:47;;;;;;;10.10;1.30;;;;;;;3.97;78.83;102136.83;107889;1281;74020;-78
2022/01/28 09:13:50;;;;;;;15.10;2.70;;;;;;;4.05;78.94;102144.13;107922;1279;61690;-79
2022/01/28 09:16:17;;;;;;;13.20;2.10;;;;;;;4.08;78.54;102153.39;107813;1281;74980;-79
2022/01/28 09:18:45;;;;;;;14.00;2.20;;;;;;;4.11;78.54;102152.33;107950;1278;72466;-79
2022/01/28 09:21:12;;;;;;;13.70;2.50;;;;;;;4.16;78.52;102160.96;107888;1281;73091;-78
2022/01/28 09:23:39;;;;;;;8.10;2.00;;;;;;;4.20;78.32;102164.56;107718;1281;61547;-78
2022/01/28 09:26:05;;;;;;;19.10;1.80;;;;;;;4.24;78.44;102156.98;107882;1281;61710;-78
2022/01/28 09:28:32;;;;;;;4.10;1.60;;;;;;;4.26;77.74;102176.96;107910;1281;60772;-79
2022/01/28 09:30:59;;;;;;;8.60;2.50;;;;;;;4.34;77.63;102185.92;107942;1280;72346;-79
2022/01/28 09:33:26;;;;;;;5.70;1.30;;;;;;;4.43;77.05;102188.83;107948;1279;73891;-80
2022/01/28 09:35:54;;;;;;;19.60;2.40;;;;;;;4.54;77.29;102188.85;107769;1281;59173;-80
2022/01/28 09:38:21;;;;;;;14.80;2.60;;;;;;;4.63;76.61;102188.63;107737;1279;62867;-81
2022/01/28 09:40:49;;;;;;;7.90;2.30;;;;;;;4.65;75.43;102203.77;107946;1279;75104;-81
2022/01/28 09:43:16;;;;;;;6.20;2.00;;;;;;;4.64;75.31;102207.67;107931;1279;70224;-80
2022/01/28 09:45:46;;;;;;;8.20;1.80;;;;;;;4.62;75.11;102214.79;107921;1279;74095;-79
2022/01/28 09:48:13;;;;;;;10.10;2.00;;;;;;;4.63;76.12;102218.61;107921;1280;61231;-81
2022/01/28 09:50:42;;;;;;;8.30;1.60;;;;;;;4.66;75.28;102223.52;107947;1279;61631;-80
2022/01/28 09:53:09;;;;;;;8.40;1.80;;;;;;;4.74;75.42;102220.53;107951;1280;74838;-81
2022/01/28 09:55:45;;;;;;;12.20;2.70;;;;;;;4.75;74.08;102235.53;108013;1279;71650;-80
2022/01/28 09:58:12;;;;;;;8.60;2.10;;;;;;;4.76;74.24;102244.20;107784;1280;74385;-80
2022/01/28 10:00:39;;;;;;;9.60;1.40;;;;;;;4.76;73.94;102242.95;107961;1279;62586;-79
2022/01/28 10:03:11;;;;;;;9.00;1.90;;;;;;;4.80;73.96;102246.41;107728;1281;61945;-79
2022/01/28 10:05:43;;;;;;;18.90;2.50;;;;;;;4.85;74.51;102249.21;107992;1279;73764;-80
2022/01/28 10:08:15;;;;;;;16.00;2.40;;;;;;;4.88;74.24;102252.34;107956;1279;73292;-81
2022/01/28 10:10:54;;;;;;;13.40;2.40;;;;;;;4.92;73.58;102258.80;107820;1281;73083;-82
2022/01/28 10:14:03;;;;;;;9.70;2.30;;;;;;;4.93;73.21;102269.45;107980;1281;60969;-81
2022/01/28 10:16:29;;;;;;;11.40;3.30;;;;;;;4.94;72.92;102266.39;107949;1281;60656;-79
2022/01/28 10:19:04;;;;;;;16.00;3.60;;;;;;;4.95;73.01;102269.32;107872;1281;74944;-79
2022/01/28 10:21:38;;;;;;;10.90;1.60;;;;;;;5.01;74.01;102261.06;107955;1280;71387;-78
2022/01/28 10:24:18;;;;;;;11.40;2.10;;;;;;;5.05;72.76;102271.45;107946;1280;72925;-78
2022/01/28 10:27:06;;;;;;;8.70;2.00;;;;;;;5.08;72.51;102262.42;107925;1280;59918;-78
2022/01/28 10:29:34;;;;;;;7.10;1.80;;;;;;;5.13;72.28;102270.92;107944;1281;59549;-81
2022/01/28 10:32:10;;;;;;;11.60;2.00;;;;;;;5.15;71.63;102268.69;107984;1281;74676;-80
2022/01/28 10:34:43;;;;;;;11.40;3.30;;;;;;;5.24;71.80;102264.60;107840;1281;70936;-79
2022/01/28 10:37:16;;;;;;;15.30;2.80;;;;;;;5.28;70.81;102262.02;107945;1281;74152;-79
2022/01/28 10:39:59;;;;;;;9.80;1.10;;;;;;;5.33;70.62;102256.98;107832;1281;60903;-80
2022/01/28 10:42:25;;;;;;;9.30;2.20;;;;;;;5.38;70.07;102259.48;107804;1281;61485;-79
2022/01/28 10:44:58;;;;;;;10.50;2.30;;;;;;;5.42;68.54;102273.94;107837;1281;59103;-79
2022/01/28 10:47:32;;;;;;;14.80;1.90;;;;;;;5.46;68.55;102268.89;107938;1280;71470;-79
2022/01/28 10:50:00;;;;;;;12.40;2.20;;;;;;;5.48;68.24;102270.35;107972;1279;73221;-79
2022/01/28 10:52:33;;;;;;;16.40;2.10;;;;;;;5.52;67.93;102262.06;107853;1279;59391;-81
2022/01/28 10:55:01;;;;;;;18.50;2.40;;;;;;;5.61;68.04;102266.32;107983;1279;60738;-79
2022/01/28 10:57:32;;;;;;;11.30;1.50;;;;;;;5.65;67.80;102260.25;107970;1279;75736;-80
2022/01/28 11:00:01;;;;;;;15.00;2.10;;;;;;;5.72;67.73;102253.84;107732;1281;71343;-79
2022/01/28 11:02:29;;;;;;;7.90;1.90;;;;;;;5.73;66.29;102263.10;107947;1279;71869;-80
2022/01/28 11:04:57;;;;;;;8.70;2.00;;;;;;;5.81;66.38;102258.66;107838;1280;60841;-80
2022/01/28 11:07:26;;;;;;;10.10;2.20;;;;;;;5.94;66.77;102251.47;108007;1279;61852;-80
2022/01/28 11:09:56;;;;;;;9.50;1.40;;;;;;;6.05;66.50;102248.43;107857;1279;74922;-81
2022/01/28 11:12:24;;;;;;;10.60;2.10;;;;;;;6.09;65.31;102259.03;107943;1279;72223;-81
2022/01/28 11:14:50;;;;;;;8.50;2.00;;;;;;;6.07;64.74;102262.84;107957;1279;74404;-81
2022/01/28 11:17:17;;;;;;;25.90;2.90;;;;;;;6.00;64.04;102266.46;107994;1280;61085;-80
2022/01/28 11:19:48;;;;;;;15.30;2.80;;;;;;;5.95;64.14;102275.63;107860;1279;60378;-79
2022/01/28 11:22:52;;;;;;;6.90;1.60;;;;;;;5.97;64.08;102262.50;107958;1279;74917;-79
2022/01/28 11:25:27;;;;;;;16.20;1.80;;;;;;;5.99;63.96;102263.05;107888;1279;71462;-78
2022/01/28 11:27:54;;;;;;;6.30;1.30;;;;;;;6.02;63.97;102261.45;107965;1279;74919;-79
2022/01/28 11:30:28;;;;;;;9.30;1.70;;;;;;;6.13;63.92;102260.68;107768;1279;59677;-79
2022/01/28 11:33:00;;;;;;;7.40;2.20;;;;;;;6.23;63.71;102261.75;107742;1280;59378;-80
2022/01/28 11:35:39;;;;;;;7.60;2.20;;;;;;;6.33;63.72;102257.02;107766;1280;76179;-81
2022/01/28 11:38:24;;;;;;;11.70;2.30;;;;;;;6.52;62.82;102258.46;107727;1280;72623;-79
2022/01/28 11:40:59;;;;;;;5.50;1.50;;;;;;;6.61;62.25;102271.20;107933;1279;74056;-79
2022/01/28 11:43:29;;;;;;;11.40;2.40;;;;;;;6.67;62.19;102269.50;107822;1279;59839;-79
2022/01/28 11:46:07;;;;;;;10.80;2.30;;;;;;;6.73;61.92;102262.04;107931;1279;61145;-82
2022/01/28 11:48:52;;;;;;;9.80;2.90;;;;;;;6.87;61.33;102273.33;107586;1281;75114;-79
2022/01/28 11:51:24;;;;;;;15.20;2.20;;;;;;;6.97;61.28;102267.70;107898;1279;72926;-81
2022/01/28 11:53:59;;;;;;;20.50;3.00;;;;;;;7.17;60.63;102276.27;107723;1279;73086;-80
2022/01/28 11:56:28;;;;;;;10.10;3.20;;;;;;;7.21;60.37;102278.94;107926;1279;59756;-81
2022/01/28 11:59:04;;;;;;;8.60;1.90;;;;;;;7.16;59.88;102290.91;107641;1279;61727;-78
2022/01/28 12:01:40;;;;;;;11.70;2.00;;;;;;;6.99;59.22;102300.97;107786;1281;74915;-78
2022/01/28 12:04:25;;;;;;;7.00;2.00;;;;;;;6.91;59.53;102302.44;107791;1279;72976;-81
2022/01/28 12:06:55;;;;;;;11.10;3.10;;;;;;;6.79;60.50;102302.21;107908;1279;74029;-80
2022/01/28 12:09:23;;;;;;;5.40;1.30;;;;;;;6.74;60.62;102303.45;107678;1280;60145;-78
2022/01/28 12:11:51;;;;;;;17.20;2.30;;;;;;;6.70;60.90;102307.48;107656;1281;60381;-79
2022/01/28 12:14:19;;;;;;;3.80;1.10;;;;;;;6.72;60.53;102315.02;107979;1279;74681;-82
2022/01/28 12:16:47;;;;;;;7.60;1.60;;;;;;;6.81;61.01;102315.45;107977;1279;70273;-81
2022/01/28 12:19:19;;;;;;;6.60;1.30;;;;;;;6.85;60.49;102318.71;107964;1279;72872;-79
2022/01/28 12:22:09;;;;;;;13.00;2.50;;;;;;;6.78;59.18;102315.84;107953;1279;59524;-79
2022/01/28 12:24:38;;;;;;;7.40;1.90;;;;;;;6.95;59.61;102316.21;107946;1279;61758;-81
2022/01/28 12:27:11;;;;;;;12.30;2.20;;;;;;;7.11;58.50;102320.35;107801;1281;74681;-78
2022/01/28 12:29:47;;;;;;;11.50;1.80;;;;;;;7.55;58.44;102321.66;107797;1279;72240;-79
2022/01/28 12:32:22;;;;;;;13.70;2.70;;;;;;;8.18;57.41;102320.02;107971;1279;76930;-79
2022/01/28 12:34:48;;;;;;;;;;;;;;;8.77;55.64;102316.83;107974;1280;59789;-80
2022/01/28 12:37:21;;;;;;;9.00;1.40;;;;;;;9.25;54.05;102312.03;108023;1278;59201;-79
2022/01/28 12:40:02;;;;;;;10.80;2.40;;;;;;;9.60;52.32;102327.86;107980;1280;75005;-81
2022/01/28 12:42:32;;;;;;;11.80;2.50;;;;;;;9.75;50.81;102309.95;107819;1279;72447;-81
2022/01/28 12:45:00;;;;;;;9.10;1.70;;;;;;;10.03;50.42;102316.10;107975;1281;72961;-81
2022/01/28 12:47:32;;;;;;;8.90;2.00;;;;;;;10.41;49.78;102307.39;107929;1279;60162;-79